createdAt,value
2023-03-25T00:02:09.458Z,993.6
2023-03-25T00:04:57.816Z,993.5
2023-03-25T00:07:48.528Z,993.5
2023-03-25T00:10:38.005Z,993.4
2023-03-25T00:13:25.676Z,993.3
2023-03-25T00:16:16.394Z,993.3
2023-03-25T00:19:04.201Z,993.2
2023-03-25T00:21:53.962Z,993.3
2023-03-25T00:24:41.476Z,993.3
2023-03-25T00:27:29.120Z,993.2
2023-03-25T00:30:16.755Z,993.1
2023-03-25T00:33:05.919Z,993.1
2023-03-25T00:35:55.536Z,993
2023-03-25T00:38:44.181Z,993.1
2023-03-25T00:41:34.946Z,993.1
2023-03-25T00:44:26.518Z,993
2023-03-25T00:47:14.224Z,992.9
2023-03-25T00:50:03.675Z,993
2023-03-25T00:52:52.758Z,993
2023-03-25T00:55:41.390Z,993.1
2023-03-25T00:58:28.959Z,993
2023-03-25T01:01:16.773Z,993
2023-03-25T01:04:08.031Z,993
2023-03-25T01:06:57.130Z,992.9
2023-03-25T01:09:46.655Z,992.8
2023-03-25T01:12:35.501Z,992.8
2023-03-25T01:15:23.358Z,992.8
2023-03-25T01:18:10.900Z,992.7
2023-03-25T01:20:59.009Z,992.7
2023-03-25T01:23:47.333Z,992.7
2023-03-25T01:26:36.203Z,992.7
2023-03-25T01:29:25.962Z,992.7
2023-03-25T01:32:14.069Z,992.9
2023-03-25T01:35:01.858Z,992.7
2023-03-25T01:37:51.102Z,992.8
2023-03-25T01:40:39.295Z,992.9
2023-03-25T01:43:27.137Z,992.7
2023-03-25T01:46:14.988Z,992.7
2023-03-25T01:49:04.476Z,992.6
2023-03-25T01:51:54.530Z,992.6
2023-03-25T01:54:48.344Z,992.6
2023-03-25T01:57:38.776Z,992.6
2023-03-25T02:00:30.748Z,992.6
2023-03-25T02:03:18.767Z,992.6
2023-03-25T02:06:09.326Z,992.6
2023-03-25T02:09:02.474Z,992.6
2023-03-25T02:11:53.637Z,992.5
2023-03-25T02:14:41.208Z,992.5
2023-03-25T02:17:28.828Z,992.6
2023-03-25T02:20:27.609Z,992.7
2023-03-25T02:23:42.241Z,992.6
2023-03-25T02:27:07.010Z,992.5
2023-03-25T02:30:11.743Z,992.3
2023-03-25T02:33:19.505Z,992.3
2023-03-25T02:36:22.223Z,992.3
2023-03-25T02:39:30.995Z,992.2
2023-03-25T02:42:26.093Z,992.3
2023-03-25T02:45:19.562Z,992.3
2023-03-25T02:48:14.959Z,992.3
2023-03-25T02:51:08.217Z,992.4
2023-03-25T02:54:01.837Z,992.4
2023-03-25T02:56:55.690Z,992.5
2023-03-25T02:59:45.600Z,992.6
2023-03-25T03:02:38.737Z,992.5
2023-03-25T03:05:30.516Z,992.4
2023-03-25T03:08:21.016Z,992.4
2023-03-25T03:11:25.899Z,992.3
2023-03-25T03:14:18.822Z,992.3
2023-03-25T03:17:22.046Z,992.2
2023-03-25T03:20:19.160Z,992.2
2023-03-25T03:23:17.375Z,992.3
2023-03-25T03:26:11.443Z,992.3
2023-03-25T03:29:09.475Z,992.3
2023-03-25T03:32:06.119Z,992.2
2023-03-25T03:34:58.832Z,992.4
2023-03-25T03:37:51.480Z,992.4
2023-03-25T03:40:43.886Z,992.4
2023-03-25T03:43:37.544Z,992.5
2023-03-25T03:46:30.590Z,992.5
2023-03-25T03:49:23.745Z,992.6
2023-03-25T03:52:15.093Z,992.6
2023-03-25T03:55:10.174Z,992.7
2023-03-25T03:58:03.722Z,992.7
2023-03-25T04:01:00.137Z,992.6
2023-03-25T04:03:55.689Z,992.6
2023-03-25T04:06:46.576Z,992.6
2023-03-25T04:09:43.246Z,992.8
2023-03-25T04:12:41.160Z,992.7
2023-03-25T04:15:33.055Z,992.7
2023-03-25T04:18:22.540Z,992.7
2023-03-25T04:21:10.244Z,992.7
2023-03-25T04:24:00.045Z,992.8
2023-03-25T04:26:49.371Z,992.7
2023-03-25T04:29:37.734Z,992.7
2023-03-25T04:32:25.306Z,992.7
2023-03-25T04:35:13.066Z,992.7
2023-03-25T04:38:03.220Z,992.6
2023-03-25T04:40:51.346Z,992.7
2023-03-25T04:43:38.825Z,992.8
2023-03-25T04:46:29.908Z,992.7
2023-03-25T04:49:17.748Z,992.7
2023-03-25T04:52:07.661Z,992.7
2023-03-25T04:54:55.243Z,992.7
2023-03-25T04:57:42.833Z,992.5
2023-03-25T05:00:32.151Z,992.6
2023-03-25T05:03:20.129Z,992.5
2023-03-25T05:06:08.923Z,992.6
2023-03-25T05:08:56.950Z,992.6
2023-03-25T05:11:44.979Z,992.6
2023-03-25T05:14:34.688Z,992.6
2023-03-25T05:17:22.180Z,992.7
2023-03-25T05:20:10.902Z,992.7
2023-03-25T05:22:59.432Z,992.7
2023-03-25T05:25:47.565Z,992.8
2023-03-25T05:28:36.860Z,992.7
2023-03-25T05:31:24.957Z,992.8
2023-03-25T05:34:12.931Z,992.8
2023-03-25T05:37:01.606Z,992.7
2023-03-25T05:39:50.059Z,992.7
2023-03-25T05:42:37.778Z,992.7
2023-03-25T05:45:33.420Z,992.7
2023-03-25T05:48:21.077Z,992.6
2023-03-25T05:51:08.651Z,992.7
2023-03-25T05:54:00.281Z,992.7
2023-03-25T05:56:48.525Z,992.6
2023-03-25T05:59:37.418Z,992.6
2023-03-25T06:02:25.526Z,992.6
2023-03-25T06:05:13.857Z,992.6
2023-03-25T06:08:02.432Z,992.6
2023-03-25T06:10:50.139Z,992.6
2023-03-25T06:13:38.998Z,992.5
2023-03-25T06:16:34.645Z,992.5
2023-03-25T06:19:22.557Z,992.6
2023-03-25T06:22:11.377Z,992.6
2023-03-25T06:25:00.340Z,992.6
2023-03-25T06:27:49.552Z,992.6
2023-03-25T06:30:37.327Z,992.7
2023-03-25T06:33:41.995Z,992.6
2023-03-25T06:36:32.885Z,992.7
2023-03-25T06:39:20.778Z,992.6
2023-03-25T06:42:08.387Z,992.7
2023-03-25T06:44:56.258Z,992.7
2023-03-25T06:47:44.490Z,992.6
2023-03-25T06:50:33.474Z,992.7
2023-03-25T06:53:21.417Z,992.7
2023-03-25T06:56:09.447Z,992.8
2023-03-25T06:58:56.985Z,992.8
2023-03-25T07:01:45.540Z,992.8
2023-03-25T07:04:34.517Z,992.7
2023-03-25T07:07:22.289Z,992.7
2023-03-25T07:10:10.049Z,992.7
2023-03-25T07:12:58.072Z,992.6
2023-03-25T07:15:45.878Z,992.6
2023-03-25T07:18:34.669Z,992.6
2023-03-25T07:21:22.511Z,992.6
2023-03-25T07:24:11.259Z,992.6
2023-03-25T07:26:59.615Z,992.6
2023-03-25T07:29:47.517Z,992.5
2023-03-25T07:32:36.249Z,992.5
2023-03-25T07:35:24.130Z,992.6
2023-03-25T07:38:11.811Z,992.7
2023-03-25T07:40:59.917Z,992.6
2023-03-25T07:43:51.376Z,992.6
2023-03-25T07:46:39.042Z,992.6
2023-03-25T07:49:26.719Z,992.5
2023-03-25T07:52:14.334Z,992.5
2023-03-25T07:55:01.828Z,992.5
2023-03-25T07:57:50.234Z,992.4
2023-03-25T08:00:37.824Z,992.4
2023-03-25T08:03:25.644Z,992.5
2023-03-25T08:06:13.707Z,992.5
2023-03-25T08:09:01.466Z,992.4
2023-03-25T08:11:49.468Z,992.4
2023-03-25T08:14:37.362Z,992.5
2023-03-25T08:17:25.053Z,992.5
2023-03-25T08:20:12.976Z,992.5
2023-03-25T08:23:00.659Z,992.5
2023-03-25T08:25:49.155Z,992.5
2023-03-25T08:28:38.018Z,992.6
2023-03-25T08:31:25.729Z,992.5
2023-03-25T08:34:18.780Z,992.6
2023-03-25T08:37:08.172Z,992.5
2023-03-25T08:39:55.768Z,992.6
2023-03-25T08:42:43.433Z,992.6
2023-03-25T08:45:32.132Z,992.6
2023-03-25T08:48:21.101Z,992.6
2023-03-25T08:51:09.504Z,992.6
2023-03-25T08:53:57.178Z,992.7
2023-03-25T08:56:45.922Z,992.6
2023-03-25T08:59:34.865Z,992.4
2023-03-25T09:02:22.637Z,992.4
2023-03-25T09:05:11.187Z,992.5
2023-03-25T09:08:00.626Z,992.5
2023-03-25T09:10:49.208Z,992.4
2023-03-25T09:13:39.893Z,992.4
2023-03-25T09:16:27.812Z,992.5
2023-03-25T09:19:15.820Z,992.6
2023-03-25T09:22:03.376Z,992.5
2023-03-25T09:24:51.227Z,992.5
2023-03-25T09:27:38.852Z,992.6
2023-03-25T09:30:26.355Z,992.7
2023-03-25T09:33:13.881Z,992.7
2023-03-25T09:36:01.560Z,992.6
2023-03-25T09:38:49.888Z,992.5
2023-03-25T09:41:40.025Z,992.5
2023-03-25T09:44:47.418Z,992.4
2023-03-25T09:47:45.246Z,992.6
2023-03-25T09:50:41.358Z,992.5
2023-03-25T09:53:31.530Z,992.5
2023-03-25T09:56:25.249Z,992.6
2023-03-25T09:59:16.231Z,992.6
2023-03-25T10:02:06.840Z,992.6
2023-03-25T10:05:08.379Z,992.6
2023-03-25T10:08:09.704Z,992.5
2023-03-25T10:11:03.580Z,992.5
2023-03-25T10:13:57.890Z,992.6
2023-03-25T10:16:53.279Z,992.5
2023-03-25T10:19:51.907Z,992.3
2023-03-25T10:22:47.542Z,992.4
2023-03-25T10:25:49.453Z,992.3
2023-03-25T10:28:45.112Z,992.2
2023-03-25T10:31:39.557Z,992.3
2023-03-25T10:34:38.639Z,992.1
2023-03-25T10:37:32.624Z,992.1
2023-03-25T10:40:24.029Z,992.1
2023-03-25T10:43:16.496Z,992
2023-03-25T10:46:11.086Z,992
2023-03-25T10:49:06.784Z,992
2023-03-25T10:51:56.371Z,992.1
2023-03-25T10:54:45.316Z,992
2023-03-25T10:57:39.235Z,992.1
2023-03-25T11:00:27.637Z,992.2
2023-03-25T11:03:15.497Z,992.2
2023-03-25T11:06:07.765Z,992.4
2023-03-25T11:09:09.247Z,992.5
2023-03-25T11:12:03.079Z,992.5
2023-03-25T11:14:52.342Z,992.4
2023-03-25T11:17:41.502Z,992.4
2023-03-25T11:20:32.393Z,992.4
2023-03-25T11:23:24.677Z,992.5
2023-03-25T11:26:16.419Z,992.5
2023-03-25T11:29:06.811Z,992.6
2023-03-25T11:31:58.270Z,992.7
2023-03-25T11:34:52.729Z,992.6
2023-03-25T11:37:40.881Z,992.4
2023-03-25T11:40:31.778Z,992.4
2023-03-25T11:43:20.308Z,992.3
2023-03-25T11:46:09.426Z,992.1
2023-03-25T11:49:00.633Z,992.1
2023-03-25T11:51:56.572Z,992
2023-03-25T11:54:49.284Z,992.1
2023-03-25T11:57:39.922Z,992.1
2023-03-25T12:00:27.609Z,992
2023-03-25T12:03:23.385Z,992
2023-03-25T12:06:13.810Z,992
2023-03-25T12:09:04.384Z,991.9
2023-03-25T12:11:56.416Z,991.9
2023-03-25T12:14:59.566Z,991.8
2023-03-25T12:17:59.235Z,991.8
2023-03-25T12:21:01.249Z,991.8
2023-03-25T12:23:58.491Z,991.8
2023-03-25T12:26:57.541Z,991.8
2023-03-25T12:29:59.084Z,991.8
2023-03-25T12:32:55.802Z,991.8
2023-03-25T12:35:58.550Z,991.7
2023-03-25T12:39:01.146Z,991.7
2023-03-25T12:42:04.287Z,991.7
2023-03-25T12:45:01.770Z,991.7
2023-03-25T12:48:10.054Z,991.7
2023-03-25T12:51:15.205Z,991.7
2023-03-25T12:54:15.800Z,991.7
2023-03-25T12:57:18.078Z,991.6
2023-03-25T13:00:18.549Z,991.6
2023-03-25T13:03:16.821Z,991.5
2023-03-25T13:06:21.358Z,991.4
2023-03-25T13:09:15.328Z,991.4
2023-03-25T13:12:09.326Z,991.4
2023-03-25T13:15:04.751Z,991.4
2023-03-25T13:18:02.358Z,991.5
2023-03-25T13:20:56.314Z,991.7
2023-03-25T13:23:49.206Z,992.1
2023-03-25T13:26:43.284Z,992.1
2023-03-25T13:29:33.704Z,992.2
2023-03-25T13:32:25.724Z,992
2023-03-25T13:35:18.486Z,992
2023-03-25T13:38:14.854Z,991.9
2023-03-25T13:41:09.343Z,991.9
2023-03-25T13:44:02.815Z,991.8
2023-03-25T13:46:57.639Z,991.7
2023-03-25T13:49:50.753Z,991.7
2023-03-25T13:52:42.960Z,991.7
2023-03-25T13:55:38.173Z,991.6
2023-03-25T13:58:32.005Z,991.7
2023-03-25T14:01:34.510Z,991.6
2023-03-25T14:04:38.368Z,991.7
2023-03-25T14:07:45.933Z,991.7
2023-03-25T14:10:49.020Z,991.6
2023-03-25T14:13:40.351Z,991.6
2023-03-25T14:16:32.505Z,991.6
2023-03-25T14:19:24.648Z,991.7
2023-03-25T14:22:16.537Z,991.6
2023-03-25T14:25:08.485Z,991.5
2023-03-25T14:28:06.249Z,991.6
2023-03-25T14:31:01.748Z,991.7
2023-03-25T14:34:02.135Z,991.6
2023-03-25T14:37:11.842Z,991.6
2023-03-25T14:40:15.584Z,991.5
2023-03-25T14:43:37.784Z,991.6
2023-03-25T14:46:31.201Z,991.6
2023-03-25T14:49:21.240Z,991.6
2023-03-25T14:52:14.803Z,991.5
2023-03-25T14:55:08.351Z,991.5
2023-03-25T14:58:02.947Z,991.4
2023-03-25T15:01:01.611Z,991.4
2023-03-25T15:03:51.771Z,991.4
2023-03-25T15:06:56.461Z,991.3
2023-03-25T15:09:46.641Z,991.4
2023-03-25T15:12:38.342Z,991.4
2023-03-25T15:15:26.523Z,991.4
2023-03-25T15:18:18.517Z,991.3
2023-03-25T15:21:46.647Z,991.3
2023-03-25T15:25:06.980Z,991.3
2023-03-25T15:28:01.442Z,991.3
2023-03-25T15:31:01.893Z,991.3
2023-03-25T15:34:07.284Z,991.3
2023-03-25T15:37:09.690Z,991.3
2023-03-25T15:40:17.790Z,991.3
2023-03-25T15:43:15.458Z,991.2
2023-03-25T15:46:32.131Z,991.3
2023-03-25T15:49:58.911Z,991.3
2023-03-25T15:53:03.524Z,991.3
2023-03-25T15:56:17.597Z,991.3
2023-03-25T15:59:09.309Z,991.4
2023-03-25T16:02:15.694Z,991.2
2023-03-25T16:05:12.001Z,991.3
2023-03-25T16:08:01.484Z,991.3
2023-03-25T16:10:54.544Z,991.4
2023-03-25T16:13:42.261Z,991.4
2023-03-25T16:16:30.054Z,991.4
2023-03-25T16:19:22.255Z,991.5
2023-03-25T16:22:15.005Z,991.5
2023-03-25T16:25:10.537Z,991.5
2023-03-25T16:28:02.524Z,991.4
2023-03-25T16:30:52.821Z,991.4
2023-03-25T16:33:41.500Z,991.4
2023-03-25T16:36:30.124Z,991.4
2023-03-25T16:39:18.718Z,991.4
2023-03-25T16:42:09.246Z,991.6
2023-03-25T16:45:04.168Z,991.6
2023-03-25T16:47:58.940Z,991.6
2023-03-25T16:50:52.294Z,991.5
2023-03-25T16:53:42.587Z,991.6
2023-03-25T16:56:35.957Z,991.6
2023-03-25T16:59:24.964Z,991.7
2023-03-25T17:02:15.275Z,991.6
2023-03-25T17:05:12.978Z,991.7
2023-03-25T17:08:04.454Z,991.7
2023-03-25T17:10:55.813Z,991.8
2023-03-25T17:13:46.117Z,991.9
2023-03-25T17:16:38.565Z,991.9
2023-03-25T17:19:27.625Z,992
2023-03-25T17:22:15.495Z,991.9
2023-03-25T17:25:11.043Z,992
2023-03-25T17:28:10.289Z,991.9
2023-03-25T17:31:13.462Z,991.9
2023-03-25T17:34:12.740Z,992
2023-03-25T17:37:05.437Z,992
2023-03-25T17:39:59.036Z,992.1
2023-03-25T17:42:56.067Z,992.1
2023-03-25T17:45:45.354Z,992.2
2023-03-25T17:48:35.398Z,992.1
2023-03-25T17:51:22.948Z,992.2
2023-03-25T17:54:12.396Z,992.2
2023-03-25T17:57:00.622Z,992.3
2023-03-25T17:59:51.329Z,992.3
2023-03-25T18:02:40.457Z,992.2
2023-03-25T18:05:28.344Z,992.3
2023-03-25T18:08:16.035Z,992.3
2023-03-25T18:11:04.208Z,992.2
2023-03-25T18:13:55.931Z,992.1
2023-03-25T18:16:43.844Z,992.3
2023-03-25T18:19:32.318Z,992.2
2023-03-25T18:22:20.506Z,992.2
2023-03-25T18:25:08.395Z,992.1
2023-03-25T18:27:57.064Z,992.1
2023-03-25T18:30:44.728Z,992
2023-03-25T18:33:37.239Z,992
2023-03-25T18:36:25.095Z,992.1
2023-03-25T18:39:12.633Z,992.5
2023-03-25T18:42:02.250Z,992.6
2023-03-25T18:44:52.517Z,992.6
2023-03-25T18:47:41.288Z,992.6
2023-03-25T18:50:29.277Z,992.7
2023-03-25T18:53:18.469Z,992.8
2023-03-25T18:56:07.505Z,992.6
2023-03-25T18:58:55.386Z,992.3
2023-03-25T19:01:43.015Z,992.2
2023-03-25T19:04:32.004Z,992.3
2023-03-25T19:07:21.162Z,992.4
2023-03-25T19:10:08.832Z,992.4
2023-03-25T19:13:01.455Z,992.4
2023-03-25T19:15:49.373Z,992.4
2023-03-25T19:18:37.524Z,992.4
2023-03-25T19:21:25.110Z,992.4
2023-03-25T19:24:12.682Z,992.3
2023-03-25T19:27:00.314Z,992.3
2023-03-25T19:29:48.166Z,992.4
2023-03-25T19:32:37.121Z,992.4
2023-03-25T19:35:24.793Z,992.4
2023-03-25T19:38:12.937Z,992.4
2023-03-25T19:41:02.077Z,992.4
2023-03-25T19:43:52.602Z,992.3
2023-03-25T19:46:40.542Z,992.4
2023-03-25T19:49:39.404Z,992.2
2023-03-25T19:52:27.982Z,992.3
2023-03-25T19:55:15.423Z,992.3
2023-03-25T19:58:04.229Z,992.3
2023-03-25T20:00:52.023Z,992.3
2023-03-25T20:03:39.577Z,992.3
2023-03-25T20:06:27.655Z,992.3
2023-03-25T20:09:15.603Z,992.4
2023-03-25T20:12:03.152Z,992.3
2023-03-25T20:14:51.469Z,992.3
2023-03-25T20:17:38.972Z,992.2
2023-03-25T20:20:26.644Z,992.3
2023-03-25T20:23:14.323Z,992.3
2023-03-25T20:26:01.829Z,992.2
2023-03-25T20:28:50.298Z,992.3
2023-03-25T20:31:38.157Z,992.3
2023-03-25T20:34:25.879Z,992.4
2023-03-25T20:37:13.785Z,992.3
2023-03-25T20:40:02.534Z,992.3
2023-03-25T20:42:55.731Z,992.3
2023-03-25T20:45:43.703Z,992.2
2023-03-25T20:48:31.877Z,992.2
2023-03-25T20:51:19.417Z,992.3
2023-03-25T20:54:08.777Z,992.2
2023-03-25T20:56:56.668Z,992.3
2023-03-25T20:59:44.229Z,992.1
2023-03-25T21:02:37.402Z,992.1
2023-03-25T21:05:25.742Z,992.1
2023-03-25T21:08:13.770Z,992.1
2023-03-25T21:11:01.732Z,992.1
2023-03-25T21:13:54.719Z,992.2
2023-03-25T21:16:43.044Z,992.1
2023-03-25T21:19:30.951Z,992
2023-03-25T21:22:18.820Z,992
2023-03-25T21:25:06.650Z,992
2023-03-25T21:27:54.431Z,992
2023-03-25T21:30:43.592Z,992
2023-03-25T21:33:32.193Z,992
2023-03-25T21:36:22.297Z,992
2023-03-25T21:39:14.254Z,992
2023-03-25T21:42:10.993Z,992
2023-03-25T21:44:59.246Z,991.9
2023-03-25T21:47:47.693Z,991.9
2023-03-25T21:50:39.553Z,991.8
2023-03-25T21:53:30.936Z,991.8
2023-03-25T21:56:18.800Z,991.8
2023-03-25T21:59:09.697Z,991.8
2023-03-25T22:01:57.294Z,991.7
2023-03-25T22:04:44.989Z,991.7
2023-03-25T22:07:33.984Z,991.8
2023-03-25T22:10:21.841Z,991.7
2023-03-25T22:13:09.544Z,991.7
2023-03-25T22:15:57.182Z,991.6
2023-03-25T22:18:46.357Z,991.7
2023-03-25T22:21:35.584Z,991.6
2023-03-25T22:24:23.218Z,991.6
2023-03-25T22:27:16.638Z,991.5
2023-03-25T22:30:04.818Z,991.5
2023-03-25T22:32:54.189Z,991.5
2023-03-25T22:35:41.839Z,991.5
2023-03-25T22:38:29.499Z,991.5
2023-03-25T22:41:17.168Z,991.5
2023-03-25T22:44:04.974Z,991.4
2023-03-25T22:46:52.614Z,991.5
2023-03-25T22:49:40.941Z,991.4
2023-03-25T22:52:28.493Z,991.4
2023-03-25T22:55:16.023Z,991.4
2023-03-25T22:58:03.781Z,991.5
2023-03-25T23:00:51.354Z,991.4
2023-03-25T23:03:41.402Z,991.5
2023-03-25T23:06:29.245Z,991.5
2023-03-25T23:09:17.999Z,991.6
2023-03-25T23:12:25.665Z,991.6
2023-03-25T23:15:13.400Z,991.6
2023-03-25T23:18:00.849Z,991.6
2023-03-25T23:20:48.824Z,991.6
2023-03-25T23:23:37.272Z,991.7
2023-03-25T23:26:27.534Z,991.7
2023-03-25T23:29:20.248Z,991.7
2023-03-25T23:32:07.832Z,991.7
2023-03-25T23:34:55.902Z,991.6
2023-03-25T23:37:44.577Z,991.6
2023-03-25T23:40:34.871Z,991.5
2023-03-25T23:43:22.404Z,991.6
2023-03-25T23:46:10.169Z,991.5
2023-03-25T23:48:58.227Z,991.4
2023-03-25T23:51:47.060Z,991.4
2023-03-25T23:54:36.385Z,991.4
2023-03-25T23:57:25.600Z,991.3
